createdAt,value
2023-05-13T00:00:38.000Z,282.02
2023-05-13T00:02:05.000Z,282.02
2023-05-13T00:04:11.000Z,281.9
2023-05-13T00:05:37.000Z,281.96
2023-05-13T00:07:43.000Z,281.9
2023-05-13T00:09:10.000Z,281.9
2023-05-13T00:11:16.000Z,281.84
2023-05-13T00:12:42.000Z,281.9
2023-05-13T00:14:49.000Z,281.84
2023-05-13T00:16:15.000Z,281.77
2023-05-13T00:18:21.000Z,281.84
2023-05-13T00:19:48.000Z,281.71
2023-05-13T00:21:54.000Z,281.71
2023-05-13T00:23:20.000Z,281.77
2023-05-13T00:25:27.000Z,281.9
2023-05-13T00:28:18.000Z,281.84
2023-05-13T00:29:44.000Z,281.71
2023-05-13T00:31:51.000Z,281.65
2023-05-13T00:33:17.000Z,281.65
2023-05-13T00:35:23.000Z,281.71
2023-05-13T00:36:50.000Z,281.65
2023-05-13T00:38:56.000Z,281.71
2023-05-13T00:40:23.000Z,281.71
2023-05-13T00:42:29.000Z,281.71
2023-05-13T00:43:55.000Z,281.71
2023-05-13T00:46:01.000Z,281.71
2023-05-13T00:47:28.000Z,281.71
2023-05-13T00:49:34.000Z,281.65
2023-05-13T00:51:00.000Z,281.59
2023-05-13T00:53:07.000Z,281.59
2023-05-13T00:54:33.000Z,281.59
2023-05-13T00:56:39.000Z,281.59
2023-05-13T00:58:06.000Z,281.59
2023-05-13T01:00:12.000Z,281.59
2023-05-13T01:01:39.000Z,281.59
2023-05-13T01:03:45.000Z,281.59
2023-05-13T01:06:36.000Z,281.65
2023-05-13T01:08:02.000Z,281.71
2023-05-13T01:10:08.000Z,281.65
2023-05-13T01:11:35.000Z,281.65
2023-05-13T01:13:41.000Z,281.65
2023-05-13T01:15:08.000Z,281.59
2023-05-13T01:17:14.000Z,281.59
2023-05-13T01:18:40.000Z,281.59
2023-05-13T01:20:46.000Z,281.71
2023-05-13T01:22:13.000Z,281.71
2023-05-13T01:24:19.000Z,281.65
2023-05-13T01:25:46.000Z,281.65
2023-05-13T01:27:52.000Z,281.71
2023-05-13T01:29:18.000Z,281.71
2023-05-13T01:31:24.000Z,281.71
2023-05-13T01:32:51.000Z,281.65
2023-05-13T01:34:57.000Z,281.65
2023-05-13T01:36:23.000Z,281.65
2023-05-13T01:38:30.000Z,281.65
2023-05-13T01:39:56.000Z,281.59
2023-05-13T01:42:02.000Z,281.46
2023-05-13T01:44:54.000Z,281.4
2023-05-13T01:46:20.000Z,281.34
2023-05-13T01:48:27.000Z,281.34
2023-05-13T01:49:53.000Z,281.34
2023-05-13T01:51:59.000Z,281.27
2023-05-13T01:53:26.000Z,281.27
2023-05-13T01:55:32.000Z,281.21
2023-05-13T01:56:58.000Z,281.15
2023-05-13T01:59:04.000Z,281.09
2023-05-13T02:00:31.000Z,281.09
2023-05-13T02:02:37.000Z,281.02
2023-05-13T02:04:04.000Z,281.02
2023-05-13T02:06:10.000Z,280.96
2023-05-13T02:07:37.000Z,280.96
2023-05-13T02:09:43.000Z,280.9
2023-05-13T02:11:09.000Z,280.96
2023-05-13T02:13:15.000Z,280.96
2023-05-13T02:14:42.000Z,280.96
2023-05-13T02:16:48.000Z,280.9
2023-05-13T02:18:15.000Z,280.96
2023-05-13T02:20:21.000Z,280.96
2023-05-13T02:23:12.000Z,280.77
2023-05-13T02:24:39.000Z,280.77
2023-05-13T02:26:45.000Z,280.77
2023-05-13T02:28:12.000Z,280.84
2023-05-13T02:30:18.000Z,280.77
2023-05-13T02:31:45.000Z,280.84
2023-05-13T02:33:51.000Z,280.77
2023-05-13T02:35:17.000Z,280.77
2023-05-13T02:37:23.000Z,280.77
2023-05-13T02:38:50.000Z,280.71
2023-05-13T02:40:56.000Z,280.77
2023-05-13T02:42:23.000Z,280.84
2023-05-13T02:44:29.000Z,280.84
2023-05-13T02:45:55.000Z,280.9
2023-05-13T02:48:01.000Z,280.84
2023-05-13T02:49:28.000Z,280.84
2023-05-13T02:51:34.000Z,280.77
2023-05-13T02:53:01.000Z,280.71
2023-05-13T02:55:07.000Z,280.71
2023-05-13T02:56:33.000Z,280.65
2023-05-13T02:58:39.000Z,280.71
2023-05-13T03:01:30.000Z,280.71
2023-05-13T03:02:57.000Z,280.65
2023-05-13T03:05:03.000Z,280.59
2023-05-13T03:06:30.000Z,280.59
2023-05-13T03:08:36.000Z,280.59
2023-05-13T03:10:02.000Z,280.59
2023-05-13T03:12:09.000Z,280.59
2023-05-13T03:13:35.000Z,280.52
2023-05-13T03:15:41.000Z,280.46
2023-05-13T03:17:09.000Z,280.46
2023-05-13T03:19:15.000Z,280.52
2023-05-13T03:20:41.000Z,280.46
2023-05-13T03:22:47.000Z,280.46
2023-05-13T03:24:14.000Z,280.46
2023-05-13T03:26:20.000Z,280.46
2023-05-13T03:27:47.000Z,280.46
2023-05-13T03:29:53.000Z,280.4
2023-05-13T03:31:19.000Z,280.4
2023-05-13T03:33:25.000Z,280.4
2023-05-13T03:34:52.000Z,280.4
2023-05-13T03:36:58.000Z,280.34
2023-05-13T03:39:49.000Z,280.34
2023-05-13T03:41:15.000Z,280.34
2023-05-13T03:43:21.000Z,280.27
2023-05-13T03:44:48.000Z,280.27
2023-05-13T03:46:54.000Z,280.27
2023-05-13T03:48:21.000Z,280.4
2023-05-13T03:50:27.000Z,280.4
2023-05-13T03:51:53.000Z,280.4
2023-05-13T03:54:00.000Z,280.4
2023-05-13T03:55:26.000Z,280.4
2023-05-13T03:57:32.000Z,280.46
2023-05-13T03:58:59.000Z,280.46
2023-05-13T04:01:05.000Z,280.59
2023-05-13T04:02:31.000Z,280.59
2023-05-13T04:04:37.000Z,280.65
2023-05-13T04:06:04.000Z,280.65
2023-05-13T04:08:10.000Z,280.59
2023-05-13T04:09:37.000Z,280.59
2023-05-13T04:11:43.000Z,280.59
2023-05-13T04:13:09.000Z,280.59
2023-05-13T04:15:16.000Z,280.59
2023-05-13T04:18:07.000Z,280.65
2023-05-13T04:19:33.000Z,280.71
2023-05-13T04:21:39.000Z,280.71
2023-05-13T04:23:06.000Z,280.77
2023-05-13T04:25:12.000Z,280.77
2023-05-13T04:26:39.000Z,280.84
2023-05-13T04:28:45.000Z,280.9
2023-05-13T04:30:11.000Z,280.96
2023-05-13T04:32:17.000Z,280.96
2023-05-13T04:33:44.000Z,280.96
2023-05-13T04:35:50.000Z,281.02
2023-05-13T04:37:17.000Z,281.02
2023-05-13T04:39:23.000Z,281.02
2023-05-13T04:40:49.000Z,280.96
2023-05-13T04:42:55.000Z,281.02
2023-05-13T04:44:22.000Z,281.09
2023-05-13T04:46:28.000Z,281.09
2023-05-13T04:47:55.000Z,281.15
2023-05-13T04:50:02.000Z,281.21
2023-05-13T04:51:29.000Z,281.27
2023-05-13T04:53:35.000Z,281.27
2023-05-13T04:56:26.000Z,281.27
2023-05-13T04:57:53.000Z,281.34
2023-05-13T04:59:59.000Z,281.4
2023-05-13T05:01:25.000Z,281.4
2023-05-13T05:03:32.000Z,281.46
2023-05-13T05:04:58.000Z,281.46
2023-05-13T05:07:05.000Z,281.52
2023-05-13T05:08:31.000Z,281.59
2023-05-13T05:10:37.000Z,281.65
2023-05-13T05:12:04.000Z,281.65
2023-05-13T05:14:10.000Z,281.65
2023-05-13T05:15:36.000Z,281.65
2023-05-13T05:17:42.000Z,281.71
2023-05-13T05:19:09.000Z,281.77
2023-05-13T05:21:15.000Z,281.9
2023-05-13T05:22:42.000Z,281.9
2023-05-13T05:24:48.000Z,282.02
2023-05-13T05:26:14.000Z,282.02
2023-05-13T05:28:21.000Z,282.09
2023-05-13T05:29:47.000Z,282.15
2023-05-13T05:31:53.000Z,282.27
2023-05-13T05:34:45.000Z,282.34
2023-05-13T05:36:11.000Z,282.4
2023-05-13T05:38:17.000Z,282.46
2023-05-13T05:39:44.000Z,282.46
2023-05-13T05:41:50.000Z,282.52
2023-05-13T05:43:16.000Z,282.59
2023-05-13T05:45:23.000Z,282.65
2023-05-13T05:46:49.000Z,282.77
2023-05-13T05:48:55.000Z,282.96
2023-05-13T05:50:22.000Z,283.09
2023-05-13T05:52:28.000Z,283.21
2023-05-13T05:53:54.000Z,283.27
2023-05-13T05:56:00.000Z,283.27
2023-05-13T05:57:27.000Z,283.27
2023-05-13T05:59:33.000Z,283.34
2023-05-13T06:00:59.000Z,283.46
2023-05-13T06:03:06.000Z,283.46
2023-05-13T06:04:32.000Z,283.4
2023-05-13T06:06:39.000Z,283.34
2023-05-13T06:08:05.000Z,283.34
2023-05-13T06:10:11.000Z,283.27
2023-05-13T06:13:03.000Z,283.27
2023-05-13T06:14:29.000Z,283.27
2023-05-13T06:16:35.000Z,283.34
2023-05-13T06:18:02.000Z,283.34
2023-05-13T06:20:08.000Z,283.34
2023-05-13T06:21:35.000Z,283.34
2023-05-13T06:23:41.000Z,283.4
2023-05-13T06:25:07.000Z,283.4
2023-05-13T06:27:13.000Z,283.52
2023-05-13T06:28:40.000Z,283.59
2023-05-13T06:30:46.000Z,283.65
2023-05-13T06:32:12.000Z,283.71
2023-05-13T06:34:18.000Z,283.77
2023-05-13T06:35:45.000Z,283.77
2023-05-13T06:37:51.000Z,283.84
2023-05-13T06:39:18.000Z,283.9
2023-05-13T06:41:24.000Z,283.96
2023-05-13T06:42:51.000Z,283.96
2023-05-13T06:44:57.000Z,284.02
2023-05-13T06:46:23.000Z,284.09
2023-05-13T06:48:29.000Z,284.09
2023-05-13T06:51:20.000Z,284.15
2023-05-13T06:52:47.000Z,284.15
2023-05-13T06:54:53.000Z,284.09
2023-05-13T06:56:19.000Z,284.09
2023-05-13T06:58:26.000Z,284.02
2023-05-13T06:59:52.000Z,284.15
2023-05-13T07:01:58.000Z,284.21
2023-05-13T07:03:25.000Z,284.27
2023-05-13T07:05:31.000Z,284.34
2023-05-13T07:06:57.000Z,284.27
2023-05-13T07:09:03.000Z,284.34
2023-05-13T07:10:33.000Z,284.4
2023-05-13T07:12:39.000Z,284.65
2023-05-13T07:14:05.000Z,284.77
2023-05-13T07:16:11.000Z,284.96
2023-05-13T07:17:38.000Z,284.96
2023-05-13T07:19:44.000Z,284.9
2023-05-13T07:21:10.000Z,285.02
2023-05-13T07:23:16.000Z,285.02
2023-05-13T07:24:43.000Z,285.09
2023-05-13T07:26:49.000Z,285.09
2023-05-13T07:29:40.000Z,285.27
2023-05-13T07:31:07.000Z,285.46
2023-05-13T07:33:13.000Z,285.52
2023-05-13T07:34:40.000Z,285.71
2023-05-13T07:36:46.000Z,285.77
2023-05-13T07:38:12.000Z,285.9
2023-05-13T07:40:18.000Z,285.71
2023-05-13T07:41:45.000Z,285.59
2023-05-13T07:43:51.000Z,285.84
2023-05-13T07:45:18.000Z,285.9
2023-05-13T07:47:25.000Z,286.21
2023-05-13T07:48:51.000Z,286.4
2023-05-13T07:50:57.000Z,286.71
2023-05-13T07:52:24.000Z,286.77
2023-05-13T07:54:30.000Z,286.71
2023-05-13T07:55:56.000Z,286.65
2023-05-13T07:58:03.000Z,286.59
2023-05-13T07:59:29.000Z,286.71
2023-05-13T08:01:35.000Z,286.9
2023-05-13T08:03:02.000Z,286.96
2023-05-13T08:05:08.000Z,287.15
2023-05-13T08:07:59.000Z,287.09
2023-05-13T08:09:25.000Z,287.15
2023-05-13T08:11:32.000Z,287.27
2023-05-13T08:12:58.000Z,287.4
2023-05-13T08:15:04.000Z,287.52
2023-05-13T08:16:31.000Z,287.52
2023-05-13T08:18:37.000Z,287.65
2023-05-13T08:20:03.000Z,287.77
2023-05-13T08:22:10.000Z,287.84
2023-05-13T08:23:36.000Z,287.9
2023-05-13T08:27:23.000Z,287.96
2023-05-13T08:29:45.000Z,288.02
2023-05-13T08:31:12.000Z,288.15
2023-05-13T08:33:18.000Z,288.15
2023-05-13T08:34:44.000Z,288.27
2023-05-13T08:36:51.000Z,288.34
2023-05-13T08:38:17.000Z,288.46
2023-05-13T08:40:24.000Z,288.65
2023-05-13T08:41:50.000Z,288.71
2023-05-13T08:43:56.000Z,288.84
2023-05-13T08:45:23.000Z,288.96
2023-05-13T08:47:29.000Z,288.9
2023-05-13T08:48:55.000Z,289.02
2023-05-13T08:51:01.000Z,289.09
2023-05-13T08:52:28.000Z,289.21
2023-05-13T08:54:34.000Z,289.09
2023-05-13T08:56:01.000Z,289.15
2023-05-13T08:58:07.000Z,289.27
2023-05-13T08:59:33.000Z,289.27
2023-05-13T09:01:39.000Z,289.34
2023-05-13T09:03:06.000Z,289.59
2023-05-13T09:05:12.000Z,289.59
2023-05-13T09:08:04.000Z,289.77
2023-05-13T09:09:30.000Z,289.77
2023-05-13T09:11:36.000Z,289.9
2023-05-13T09:13:03.000Z,289.77
2023-05-13T09:15:09.000Z,289.9
2023-05-13T09:16:35.000Z,290.02
2023-05-13T09:18:41.000Z,290.09
2023-05-13T09:20:08.000Z,290.15
2023-05-13T09:22:14.000Z,290.15
2023-05-13T09:23:41.000Z,290.15
2023-05-13T09:25:47.000Z,289.96
2023-05-13T09:27:13.000Z,289.84
2023-05-13T09:29:19.000Z,290.02
2023-05-13T09:30:46.000Z,290.21
2023-05-13T09:32:52.000Z,290.27
2023-05-13T09:34:19.000Z,290.21
2023-05-13T09:36:25.000Z,290.46
2023-05-13T09:37:52.000Z,290.4
2023-05-13T09:39:58.000Z,290.65
2023-05-13T09:41:24.000Z,290.71
2023-05-13T09:43:30.000Z,290.84
2023-05-13T09:46:22.000Z,290.9
2023-05-13T09:47:48.000Z,290.96
2023-05-13T09:49:54.000Z,291.09
2023-05-13T09:51:21.000Z,291.21
2023-05-13T09:53:27.000Z,291.15
2023-05-13T09:54:53.000Z,291.27
2023-05-13T09:56:59.000Z,291.15
2023-05-13T09:58:26.000Z,291.15
2023-05-13T10:00:32.000Z,291.27
2023-05-13T10:02:02.000Z,291.46
2023-05-13T10:04:08.000Z,291.52
2023-05-13T10:05:35.000Z,291.4
2023-05-13T10:07:41.000Z,291.59
2023-05-13T10:09:08.000Z,291.46
2023-05-13T10:11:14.000Z,291.21
2023-05-13T10:12:40.000Z,291.4
2023-05-13T10:14:46.000Z,291.46
2023-05-13T10:16:13.000Z,291.52
2023-05-13T10:18:19.000Z,291.9
2023-05-13T10:19:46.000Z,292.21
2023-05-13T10:21:52.000Z,292.15
2023-05-13T10:24:43.000Z,291.71
2023-05-13T10:26:09.000Z,291.71
2023-05-13T10:28:16.000Z,291.65
2023-05-13T10:29:42.000Z,291.4
2023-05-13T10:31:48.000Z,291.27
2023-05-13T10:33:15.000Z,291.34
2023-05-13T10:35:21.000Z,291.52
2023-05-13T10:36:48.000Z,291.59
2023-05-13T10:38:54.000Z,291.4
2023-05-13T10:40:20.000Z,291.34
2023-05-13T10:42:27.000Z,291.27
2023-05-13T10:43:54.000Z,291.34
2023-05-13T10:46:00.000Z,291.34
2023-05-13T10:47:26.000Z,291.4
2023-05-13T10:49:33.000Z,291.4
2023-05-13T10:50:59.000Z,291.34
2023-05-13T10:53:05.000Z,291.34
2023-05-13T10:54:32.000Z,291.34
2023-05-13T10:56:38.000Z,291.34
2023-05-13T10:58:04.000Z,291.27
2023-05-13T11:00:10.000Z,291.21
2023-05-13T11:03:02.000Z,291.15
2023-05-13T11:04:28.000Z,291.15
2023-05-13T11:06:35.000Z,291.15
2023-05-13T11:08:01.000Z,291.21
2023-05-13T11:10:07.000Z,291.34
2023-05-13T11:11:34.000Z,291.34
2023-05-13T11:13:40.000Z,291.77
2023-05-13T11:15:07.000Z,291.96
2023-05-13T11:17:13.000Z,291.84
2023-05-13T11:18:39.000Z,291.77
2023-05-13T11:20:45.000Z,291.65
2023-05-13T11:22:17.000Z,291.52
2023-05-13T11:24:23.000Z,291.46
2023-05-13T11:25:50.000Z,291.46
2023-05-13T11:27:56.000Z,291.27
2023-05-13T11:29:22.000Z,291.15
2023-05-13T11:31:29.000Z,291.09
2023-05-13T11:32:55.000Z,291.46
2023-05-13T11:35:02.000Z,291.46
2023-05-13T11:36:28.000Z,291.46
2023-05-13T11:38:35.000Z,291.59
2023-05-13T11:41:26.000Z,291.46
2023-05-13T11:42:52.000Z,291.52
2023-05-13T11:44:58.000Z,291.77
2023-05-13T11:46:25.000Z,291.96
2023-05-13T11:48:31.000Z,292.34
2023-05-13T11:49:57.000Z,292.52
2023-05-13T11:52:04.000Z,292.59
2023-05-13T11:53:30.000Z,292.65
2023-05-13T11:55:36.000Z,292.9
2023-05-13T11:57:03.000Z,292.84
2023-05-13T11:59:09.000Z,292.71
2023-05-13T12:00:35.000Z,292.52
2023-05-13T12:02:41.000Z,292.59
2023-05-13T12:04:08.000Z,292.52
2023-05-13T12:06:14.000Z,292.52
2023-05-13T12:07:41.000Z,292.71
2023-05-13T12:09:47.000Z,292.71
2023-05-13T12:11:13.000Z,292.52
2023-05-13T12:13:20.000Z,292.4
2023-05-13T12:14:46.000Z,292.52
2023-05-13T12:16:53.000Z,292.84
2023-05-13T12:19:44.000Z,293.09
2023-05-13T12:21:10.000Z,293.27
2023-05-13T12:23:16.000Z,293.4
2023-05-13T12:24:43.000Z,293.15
2023-05-13T12:26:49.000Z,292.84
2023-05-13T12:28:16.000Z,292.84
2023-05-13T12:30:22.000Z,292.65
2023-05-13T12:31:48.000Z,292.59
2023-05-13T12:33:55.000Z,292.34
2023-05-13T12:35:21.000Z,292.4
2023-05-13T12:37:28.000Z,292.65
2023-05-13T12:38:54.000Z,292.77
2023-05-13T12:41:04.000Z,292.9
2023-05-13T12:42:30.000Z,293.09
2023-05-13T12:44:36.000Z,293.34
2023-05-13T12:46:03.000Z,293.46
2023-05-13T12:48:09.000Z,293.15
2023-05-13T12:49:36.000Z,293.02
2023-05-13T12:51:42.000Z,292.96
2023-05-13T12:53:09.000Z,292.84
2023-05-13T12:55:15.000Z,292.71
2023-05-13T12:58:06.000Z,292.96
2023-05-13T12:59:32.000Z,292.77
2023-05-13T13:01:39.000Z,292.59
2023-05-13T13:03:05.000Z,292.34
2023-05-13T13:05:12.000Z,292.59
2023-05-13T13:06:39.000Z,292.77
2023-05-13T13:08:45.000Z,292.71
2023-05-13T13:10:11.000Z,292.84
2023-05-13T13:12:17.000Z,292.77
2023-05-13T13:13:44.000Z,292.65
2023-05-13T13:15:50.000Z,292.84
2023-05-13T13:17:17.000Z,292.77
2023-05-13T13:19:23.000Z,292.59
2023-05-13T13:20:50.000Z,292.77
2023-05-13T13:22:56.000Z,293.02
2023-05-13T13:24:22.000Z,293.27
2023-05-13T13:26:28.000Z,293.46
2023-05-13T13:27:55.000Z,293.59
2023-05-13T13:30:01.000Z,293.21
2023-05-13T13:31:28.000Z,292.96
2023-05-13T13:33:34.000Z,292.65
2023-05-13T13:36:25.000Z,293.09
2023-05-13T13:37:52.000Z,293.27
2023-05-13T13:39:58.000Z,293.34
2023-05-13T13:41:24.000Z,293.46
2023-05-13T13:43:30.000Z,293.59
2023-05-13T13:44:57.000Z,293.65
2023-05-13T13:47:03.000Z,293.71
2023-05-13T13:48:29.000Z,293.71
2023-05-13T13:50:36.000Z,293.84
2023-05-13T13:52:02.000Z,293.96
2023-05-13T13:54:08.000Z,294.02
2023-05-13T13:55:35.000Z,294.02
2023-05-13T13:57:41.000Z,294.15
2023-05-13T13:59:07.000Z,293.96
2023-05-13T14:01:14.000Z,293.77
2023-05-13T14:02:40.000Z,293.9
2023-05-13T14:04:47.000Z,294.02
2023-05-13T14:06:13.000Z,293.84
2023-05-13T14:08:20.000Z,293.59
2023-05-13T14:09:46.000Z,293.65
2023-05-13T14:11:53.000Z,293.9
2023-05-13T14:14:44.000Z,294.15
2023-05-13T14:16:10.000Z,294.27
2023-05-13T14:18:16.000Z,294.27
2023-05-13T14:19:43.000Z,294.15
2023-05-13T14:21:49.000Z,293.77
2023-05-13T14:23:15.000Z,293.59
2023-05-13T14:25:22.000Z,293.4
2023-05-13T14:26:48.000Z,293.34
2023-05-13T14:28:54.000Z,293.59
2023-05-13T14:30:21.000Z,293.65
2023-05-13T14:32:27.000Z,293.46
2023-05-13T14:33:54.000Z,293.4
2023-05-13T14:36:00.000Z,293.27
2023-05-13T14:37:27.000Z,293.21
2023-05-13T14:39:33.000Z,292.96
2023-05-13T14:41:00.000Z,292.9
2023-05-13T14:43:06.000Z,292.77
2023-05-13T14:44:32.000Z,293.15
2023-05-13T14:46:39.000Z,293.34
2023-05-13T14:48:05.000Z,293.52
2023-05-13T14:50:12.000Z,293.34
2023-05-13T14:53:03.000Z,292.9
2023-05-13T14:54:29.000Z,292.71
2023-05-13T14:56:35.000Z,292.65
2023-05-13T14:58:02.000Z,292.65
2023-05-13T15:00:08.000Z,292.59
2023-05-13T15:01:35.000Z,292.65
2023-05-13T15:03:41.000Z,292.65
2023-05-13T15:05:07.000Z,292.65
2023-05-13T15:07:13.000Z,292.52
2023-05-13T15:08:40.000Z,292.59
2023-05-13T15:10:46.000Z,293.15
2023-05-13T15:12:13.000Z,293.4
2023-05-13T15:14:19.000Z,293.71
2023-05-13T15:15:45.000Z,293.34
2023-05-13T15:17:51.000Z,292.84
2023-05-13T15:19:18.000Z,292.71
2023-05-13T15:21:24.000Z,292.77
2023-05-13T15:22:51.000Z,293.15
2023-05-13T15:24:57.000Z,293.27
2023-05-13T15:26:23.000Z,293.46
2023-05-13T15:28:30.000Z,293.71
2023-05-13T15:31:21.000Z,293.96
2023-05-13T15:32:47.000Z,293.96
2023-05-13T15:34:54.000Z,294.02
2023-05-13T15:36:20.000Z,294.02
2023-05-13T15:38:26.000Z,294.21
2023-05-13T15:39:53.000Z,294.21
2023-05-13T15:41:59.000Z,294.27
2023-05-13T15:43:25.000Z,294.15
2023-05-13T15:45:32.000Z,294.09
2023-05-13T15:46:58.000Z,294.15
2023-05-13T15:49:04.000Z,294.02
2023-05-13T15:52:44.000Z,293.9
2023-05-13T15:54:12.000Z,293.9
2023-05-13T16:00:46.000Z,293.96
2023-05-13T16:02:13.000Z,293.96
2023-05-13T16:04:19.000Z,294.02
2023-05-13T16:05:46.000Z,294.02
2023-05-13T16:07:52.000Z,294.09
2023-05-13T16:10:44.000Z,294.09
2023-05-13T16:12:10.000Z,294.02
2023-05-13T16:14:16.000Z,294.02
2023-05-13T16:15:44.000Z,294.09
2023-05-13T16:17:50.000Z,294.21
2023-05-13T16:19:16.000Z,294.02
2023-05-13T16:21:23.000Z,294.09
2023-05-13T16:22:49.000Z,294.09
2023-05-13T16:24:55.000Z,294.09
2023-05-13T16:26:22.000Z,294.09
2023-05-13T16:28:28.000Z,294.02
2023-05-13T16:29:54.000Z,294.02
2023-05-13T16:32:01.000Z,294.09
2023-05-13T16:33:27.000Z,294.09
2023-05-13T16:35:34.000Z,294.09
2023-05-13T16:37:00.000Z,293.9
2023-05-13T16:39:06.000Z,294.09
2023-05-13T16:40:33.000Z,294.09
2023-05-13T16:42:39.000Z,294.09
2023-05-13T16:44:06.000Z,294.09
2023-05-13T16:46:12.000Z,293.9
2023-05-13T16:49:05.000Z,294.21
2023-05-13T16:50:32.000Z,294.15
2023-05-13T16:52:38.000Z,294.09
2023-05-13T16:54:05.000Z,294.15
2023-05-13T16:56:11.000Z,293.9
2023-05-13T16:57:37.000Z,294.02
2023-05-13T16:59:43.000Z,294.02
2023-05-13T17:01:10.000Z,294.02
2023-05-13T17:03:16.000Z,294.09
2023-05-13T17:04:43.000Z,294.02
2023-05-13T17:06:49.000Z,294.09
2023-05-13T17:08:16.000Z,294.02
2023-05-13T17:10:22.000Z,294.09
2023-05-13T17:11:49.000Z,294.02
2023-05-13T17:13:55.000Z,294.02
2023-05-13T17:15:22.000Z,294.02
2023-05-13T17:17:28.000Z,293.9
2023-05-13T17:18:54.000Z,293.9
2023-05-13T17:21:03.000Z,293.77
2023-05-13T17:22:29.000Z,293.71
2023-05-13T17:24:36.000Z,293.59
2023-05-13T17:27:27.000Z,293.34
2023-05-13T17:28:54.000Z,293.27
2023-05-13T17:31:00.000Z,293.02
2023-05-13T17:32:26.000Z,292.9
2023-05-13T17:34:32.000Z,292.77
2023-05-13T17:35:59.000Z,292.71
2023-05-13T17:38:05.000Z,292.65
2023-05-13T17:39:31.000Z,292.59
2023-05-13T17:41:38.000Z,292.46
2023-05-13T17:43:04.000Z,292.46
2023-05-13T17:45:10.000Z,292.4
2023-05-13T17:46:37.000Z,292.34
2023-05-13T17:48:43.000Z,292.21
2023-05-13T17:50:10.000Z,292.21
2023-05-13T17:52:16.000Z,292.15
2023-05-13T17:53:43.000Z,292.09
2023-05-13T17:55:49.000Z,292.09
2023-05-13T17:57:16.000Z,292.02
2023-05-13T17:59:22.000Z,291.9
2023-05-13T18:00:48.000Z,291.9
2023-05-13T18:02:54.000Z,291.84
2023-05-13T18:05:46.000Z,291.77
2023-05-13T18:07:12.000Z,291.71
2023-05-13T18:09:18.000Z,291.59
2023-05-13T18:10:45.000Z,291.52
2023-05-13T18:12:51.000Z,291.4
2023-05-13T18:14:18.000Z,291.34
2023-05-13T18:16:24.000Z,291.34
2023-05-13T18:17:50.000Z,291.34
2023-05-13T18:19:56.000Z,291.21
2023-05-13T18:21:23.000Z,291.15
2023-05-13T18:23:29.000Z,291.09
2023-05-13T18:24:55.000Z,291.09
2023-05-13T18:27:02.000Z,290.96
2023-05-13T18:28:28.000Z,290.9
2023-05-13T18:30:34.000Z,290.65
2023-05-13T18:32:01.000Z,290.77
2023-05-13T18:34:07.000Z,290.52
2023-05-13T18:35:34.000Z,290.59
2023-05-13T18:37:40.000Z,290.59
2023-05-13T18:39:06.000Z,290.59
2023-05-13T18:41:13.000Z,290.46
2023-05-13T18:44:04.000Z,290.4
2023-05-13T18:45:30.000Z,290.4
2023-05-13T18:47:36.000Z,290.34
2023-05-13T18:49:03.000Z,290.21
2023-05-13T18:51:09.000Z,290.21
2023-05-13T18:52:36.000Z,290.15
2023-05-13T18:54:42.000Z,290.09
2023-05-13T18:56:08.000Z,290.09
2023-05-13T18:58:14.000Z,290.02
2023-05-13T18:59:41.000Z,290.09
2023-05-13T19:01:47.000Z,289.96
2023-05-13T19:03:14.000Z,289.96
2023-05-13T19:05:20.000Z,289.96
2023-05-13T19:06:47.000Z,289.9
2023-05-13T19:08:53.000Z,289.9
2023-05-13T19:10:19.000Z,289.84
2023-05-13T19:12:26.000Z,289.84
2023-05-13T19:13:52.000Z,289.77
2023-05-13T19:15:58.000Z,289.71
2023-05-13T19:17:25.000Z,289.65
2023-05-13T19:19:31.000Z,289.59
2023-05-13T19:22:23.000Z,289.52
2023-05-13T19:23:49.000Z,289.52
2023-05-13T19:25:55.000Z,289.46
2023-05-13T19:27:22.000Z,289.46
2023-05-13T19:29:28.000Z,289.4
2023-05-13T19:30:55.000Z,289.4
2023-05-13T19:33:01.000Z,289.34
2023-05-13T19:34:27.000Z,289.21
2023-05-13T19:36:33.000Z,289.27
2023-05-13T19:38:00.000Z,289.21
2023-05-13T19:40:06.000Z,288.84
2023-05-13T19:41:33.000Z,288.65
2023-05-13T19:43:39.000Z,288.71
2023-05-13T19:45:05.000Z,288.52
2023-05-13T19:47:11.000Z,288.34
2023-05-13T19:48:38.000Z,288.34
2023-05-13T19:50:44.000Z,288.34
2023-05-13T19:52:10.000Z,288.34
2023-05-13T19:54:17.000Z,288.21
2023-05-13T19:55:43.000Z,288.15
2023-05-13T19:57:49.000Z,288.02
2023-05-13T20:00:41.000Z,288.09
2023-05-13T20:02:07.000Z,287.96
2023-05-13T20:04:13.000Z,287.96
2023-05-13T20:05:40.000Z,288.02
2023-05-13T20:07:46.000Z,287.77
2023-05-13T20:09:12.000Z,287.65
2023-05-13T20:11:18.000Z,287.46
2023-05-13T20:12:45.000Z,287.46
2023-05-13T20:14:51.000Z,287.4
2023-05-13T20:16:18.000Z,287.4
2023-05-13T20:18:24.000Z,287.27
2023-05-13T20:19:50.000Z,287.15
2023-05-13T20:21:56.000Z,287.09
2023-05-13T20:23:23.000Z,286.96
2023-05-13T20:25:29.000Z,286.71
2023-05-13T20:26:56.000Z,286.59
2023-05-13T20:29:02.000Z,286.59
2023-05-13T20:30:28.000Z,286.59
2023-05-13T20:32:35.000Z,286.52
2023-05-13T20:34:01.000Z,286.59
2023-05-13T20:36:07.000Z,286.46
2023-05-13T20:38:59.000Z,286.27
2023-05-13T20:40:25.000Z,286.27
2023-05-13T20:42:32.000Z,286.27
2023-05-13T20:43:58.000Z,286.21
2023-05-13T20:46:04.000Z,286.09
2023-05-13T20:47:31.000Z,285.96
2023-05-13T20:49:37.000Z,285.77
2023-05-13T20:51:04.000Z,285.71
2023-05-13T20:53:10.000Z,285.65
2023-05-13T20:54:36.000Z,285.52
2023-05-13T20:56:42.000Z,285.52
2023-05-13T20:58:09.000Z,285.4
2023-05-13T21:00:15.000Z,285.34
2023-05-13T21:01:41.000Z,285.21
2023-05-13T21:03:48.000Z,285.4
2023-05-13T21:05:14.000Z,285.34
2023-05-13T21:07:20.000Z,285.09
2023-05-13T21:08:47.000Z,285.09
2023-05-13T21:10:53.000Z,284.9
2023-05-13T21:12:20.000Z,284.71
2023-05-13T21:14:26.000Z,284.65
2023-05-13T21:17:17.000Z,284.59
2023-05-13T21:18:43.000Z,284.52
2023-05-13T21:20:50.000Z,284.34
2023-05-13T21:22:16.000Z,284.27
2023-05-13T21:24:22.000Z,284.34
2023-05-13T21:25:49.000Z,284.34
2023-05-13T21:27:55.000Z,284.34
2023-05-13T21:29:22.000Z,284.15
2023-05-13T21:31:28.000Z,283.96
2023-05-13T21:32:54.000Z,283.96
2023-05-13T21:35:00.000Z,283.96
2023-05-13T21:36:27.000Z,283.84
2023-05-13T21:38:33.000Z,283.84
2023-05-13T21:40:00.000Z,283.9
2023-05-13T21:42:06.000Z,283.84
2023-05-13T21:43:32.000Z,283.71
2023-05-13T21:45:38.000Z,283.65
2023-05-13T21:47:05.000Z,283.59
2023-05-13T21:49:11.000Z,283.52
2023-05-13T21:50:38.000Z,283.46
2023-05-13T21:52:44.000Z,283.4
2023-05-13T21:55:35.000Z,283.4
2023-05-13T21:57:02.000Z,283.27
2023-05-13T21:59:08.000Z,283.09
2023-05-13T22:00:34.000Z,283.09
2023-05-13T22:02:40.000Z,283.15
2023-05-13T22:04:07.000Z,283.15
2023-05-13T22:06:13.000Z,283.02
2023-05-13T22:07:40.000Z,283.02
2023-05-13T22:09:46.000Z,282.96
2023-05-13T22:11:15.000Z,282.9
2023-05-13T22:13:21.000Z,283.15
2023-05-13T22:14:47.000Z,283.02
2023-05-13T22:16:53.000Z,282.96
2023-05-13T22:18:34.000Z,282.96
2023-05-13T22:20:41.000Z,282.9
2023-05-13T22:22:07.000Z,282.9
2023-05-13T22:24:13.000Z,282.71
2023-05-13T22:25:40.000Z,282.71
2023-05-13T22:27:46.000Z,282.65
2023-05-13T22:29:12.000Z,282.59
2023-05-13T22:31:18.000Z,282.52
2023-05-13T22:34:10.000Z,282.4
2023-05-13T22:35:36.000Z,282.34
2023-05-13T22:37:42.000Z,282.27
2023-05-13T22:39:09.000Z,282.27
2023-05-13T22:41:15.000Z,282.21
2023-05-13T22:42:41.000Z,282.21
2023-05-13T22:44:48.000Z,282.15
2023-05-13T22:46:14.000Z,282.15
2023-05-13T22:48:20.000Z,282.27
2023-05-13T22:49:47.000Z,282.21
2023-05-13T22:51:53.000Z,282.09
2023-05-13T22:53:19.000Z,282.09
2023-05-13T22:55:25.000Z,282.09
2023-05-13T22:56:52.000Z,282.15
2023-05-13T22:58:58.000Z,282.15